createdAt,value
2019-03-27T00:01:31.428Z,21.77
2019-03-27T00:03:58.646Z,19.52
2019-03-27T00:06:26.302Z,17.00
2019-03-27T00:08:53.534Z,23.67
2019-03-27T00:11:20.755Z,18.50
2019-03-27T00:13:48.023Z,24.45
2019-03-27T00:16:15.283Z,19.87
2019-03-27T00:18:42.544Z,18.05
2019-03-27T00:21:09.775Z,22.27
2019-03-27T00:23:36.991Z,21.33
2019-03-27T00:26:04.228Z,20.92
2019-03-27T00:28:31.507Z,29.55
2019-03-27T00:30:58.736Z,41.77
2019-03-27T00:33:25.951Z,17.98
2019-03-27T00:35:53.183Z,17.37
2019-03-27T00:38:20.474Z,24.85
2019-03-27T00:40:47.710Z,23.38
2019-03-27T00:43:14.922Z,29.85
2019-03-27T00:45:42.147Z,26.15
2019-03-27T00:48:09.373Z,18.62
2019-03-27T00:50:36.596Z,19.65
2019-03-27T00:53:03.812Z,32.48
2019-03-27T00:55:31.042Z,23.77
2019-03-27T00:57:58.254Z,16.48
2019-03-27T01:00:45.206Z,29.27
2019-03-27T01:03:12.421Z,19.37
2019-03-27T01:05:39.643Z,26.60
2019-03-27T01:08:06.863Z,20.85
2019-03-27T01:10:34.089Z,29.57
2019-03-27T01:13:01.299Z,22.98
2019-03-27T01:15:39.304Z,34.63
2019-03-27T01:17:57.461Z,26.60
2019-03-27T01:20:24.691Z,17.17
2019-03-27T01:22:51.918Z,16.77
2019-03-27T01:25:19.143Z,19.25
2019-03-27T01:27:46.369Z,19.67
2019-03-27T01:30:13.757Z,26.20
2019-03-27T01:32:40.984Z,17.37
2019-03-27T01:35:08.287Z,16.12
2019-03-27T01:37:35.495Z,23.80
2019-03-27T01:40:02.718Z,23.12
2019-03-27T01:42:29.935Z,17.00
2019-03-27T01:44:57.158Z,25.43
2019-03-27T01:47:24.377Z,23.10
2019-03-27T01:49:51.610Z,23.90
2019-03-27T01:52:18.829Z,26.07
2019-03-27T01:54:46.330Z,26.80
2019-03-27T01:57:13.544Z,17.48
2019-03-27T01:59:40.760Z,25.32
2019-03-27T02:02:07.980Z,21.90
2019-03-27T02:04:35.191Z,22.42
2019-03-27T02:07:02.430Z,23.98
2019-03-27T02:09:29.647Z,29.02
2019-03-27T02:11:56.875Z,23.02
2019-03-27T02:14:24.101Z,33.73
2019-03-27T02:16:51.322Z,29.82
2019-03-27T02:19:18.539Z,24.02
2019-03-27T02:21:45.779Z,22.87
2019-03-27T02:24:12.995Z,41.40
2019-03-27T02:26:40.222Z,22.40
2019-03-27T02:29:07.440Z,27.48
2019-03-27T02:31:34.666Z,26.27
2019-03-27T02:34:01.880Z,22.30
2019-03-27T02:36:29.117Z,22.42
2019-03-27T02:38:56.336Z,25.77
2019-03-27T02:41:23.573Z,31.35
2019-03-27T02:43:50.787Z,19.80
2019-03-27T02:46:25.033Z,30.02
2019-03-27T02:48:47.004Z,29.75
2019-03-27T02:51:14.227Z,24.43
2019-03-27T02:53:41.452Z,23.62
2019-03-27T02:56:08.670Z,20.95
2019-03-27T02:58:35.937Z,25.68
2019-03-27T03:01:03.398Z,18.05
2019-03-27T03:03:30.615Z,25.15
2019-03-27T03:05:57.838Z,19.02
2019-03-27T03:08:25.069Z,31.55
2019-03-27T03:10:52.323Z,27.17
2019-03-27T03:13:19.524Z,33.20
2019-03-27T03:15:46.745Z,25.77
2019-03-27T03:18:13.971Z,23.18
2019-03-27T03:20:41.366Z,29.90
2019-03-27T03:23:08.602Z,28.15
2019-03-27T03:25:35.821Z,34.67
2019-03-27T03:28:03.052Z,28.10
2019-03-27T03:30:30.276Z,33.83
2019-03-27T03:32:57.576Z,31.30
2019-03-27T03:35:24.795Z,37.83
2019-03-27T03:37:52.021Z,31.50
2019-03-27T03:40:19.245Z,40.38
2019-03-27T03:42:46.463Z,40.73
2019-03-27T03:45:13.757Z,32.28
2019-03-27T03:47:41.088Z,30.97
2019-03-27T03:50:09.846Z,33.45
2019-03-27T03:52:37.143Z,26.02
2019-03-27T03:55:05.037Z,31.10
2019-03-27T03:57:32.564Z,47.75
2019-03-27T04:00:00.806Z,34.98
2019-03-27T04:02:29.406Z,28.62
2019-03-27T04:04:57.095Z,30.57
2019-03-27T04:07:24.339Z,35.05
2019-03-27T04:09:51.562Z,46.00
2019-03-27T04:12:18.793Z,28.83
2019-03-27T04:14:46.023Z,43.63
2019-03-27T04:17:17.344Z,60.90
2019-03-27T04:19:42.489Z,34.98
2019-03-27T04:22:09.693Z,45.67
2019-03-27T04:24:36.942Z,27.67
2019-03-27T04:27:04.144Z,34.67
2019-03-27T04:29:31.382Z,36.17
2019-03-27T04:31:58.595Z,37.73
2019-03-27T04:34:25.830Z,36.63
2019-03-27T04:36:53.052Z,45.80
2019-03-27T04:39:20.295Z,42.20
2019-03-27T04:41:47.524Z,31.52
2019-03-27T04:44:14.773Z,34.70
2019-03-27T04:46:42.014Z,43.45
2019-03-27T04:49:09.212Z,33.13
2019-03-27T04:51:36.435Z,36.20
2019-03-27T04:54:03.677Z,45.55
2019-03-27T04:56:30.902Z,34.13
2019-03-27T04:58:58.137Z,37.13
2019-03-27T05:01:25.356Z,37.28
2019-03-27T05:03:53.152Z,39.58
2019-03-27T05:06:20.371Z,46.75
2019-03-27T05:08:47.594Z,35.63
2019-03-27T05:11:14.821Z,44.63
2019-03-27T05:13:42.052Z,32.58
2019-03-27T05:16:09.279Z,46.15
2019-03-27T05:18:36.519Z,44.35
2019-03-27T05:21:03.742Z,36.48
2019-03-27T05:23:30.972Z,45.88
2019-03-27T05:25:58.201Z,50.48
2019-03-27T05:28:25.432Z,43.87
2019-03-27T05:30:52.647Z,40.03
2019-03-27T05:33:19.874Z,50.50
2019-03-27T05:35:47.103Z,44.63
2019-03-27T05:38:14.448Z,37.98
2019-03-27T05:40:41.744Z,38.55
2019-03-27T05:43:08.958Z,41.35
2019-03-27T05:45:36.200Z,49.70
2019-03-27T05:48:03.421Z,49.77
2019-03-27T05:50:30.649Z,43.17
2019-03-27T05:52:57.866Z,42.80
2019-03-27T05:55:27.162Z,35.65
2019-03-27T05:57:54.371Z,41.83
2019-03-27T06:00:21.635Z,61.37
2019-03-27T06:02:48.856Z,39.58
2019-03-27T06:05:16.087Z,35.88
2019-03-27T06:07:43.315Z,51.80
2019-03-27T06:10:10.619Z,40.33
2019-03-27T06:12:37.844Z,38.48
2019-03-27T06:15:06.044Z,50.48
2019-03-27T06:17:33.287Z,57.75
2019-03-27T06:20:00.511Z,42.20
2019-03-27T06:22:27.739Z,39.67
2019-03-27T06:24:55.043Z,43.85
2019-03-27T06:27:22.339Z,37.03
2019-03-27T06:29:49.577Z,54.00
2019-03-27T06:32:16.879Z,36.45
2019-03-27T06:34:44.104Z,52.90
2019-03-27T06:37:11.323Z,37.73
2019-03-27T06:39:38.586Z,45.52
2019-03-27T06:42:05.806Z,42.15
2019-03-27T06:44:33.036Z,55.10
2019-03-27T06:47:00.270Z,45.80
2019-03-27T06:49:27.499Z,43.85
2019-03-27T06:51:54.728Z,41.37
2019-03-27T06:54:21.971Z,43.50
2019-03-27T06:56:49.207Z,53.70
2019-03-27T06:59:16.428Z,53.02
2019-03-27T07:01:43.769Z,41.48
2019-03-27T07:04:11.376Z,40.88
2019-03-27T07:06:38.703Z,45.03
2019-03-27T07:09:07.292Z,32.83
2019-03-27T07:11:34.682Z,33.00
2019-03-27T07:14:02.022Z,35.88
2019-03-27T07:16:29.348Z,51.80
2019-03-27T07:18:56.552Z,42.20
2019-03-27T07:21:23.811Z,40.38
2019-03-27T07:23:51.037Z,36.95
2019-03-27T07:26:18.267Z,49.58
2019-03-27T07:28:45.498Z,44.23
2019-03-27T07:31:12.781Z,62.98
2019-03-27T07:33:41.966Z,51.48
2019-03-27T07:36:08.955Z,33.98
2019-03-27T07:38:36.177Z,47.15
2019-03-27T07:41:03.399Z,45.20
2019-03-27T07:43:30.629Z,43.20
2019-03-27T07:45:57.895Z,55.78
2019-03-27T07:48:25.138Z,42.88
2019-03-27T07:50:52.377Z,37.63
2019-03-27T07:53:22.284Z,46.73
2019-03-27T07:55:48.560Z,39.58
2019-03-27T07:58:15.787Z,39.75
2019-03-27T08:00:43.026Z,43.63
2019-03-27T08:03:10.255Z,54.23
2019-03-27T08:05:37.483Z,40.73
2019-03-27T08:08:04.711Z,37.10
2019-03-27T08:10:31.953Z,41.20
2019-03-27T08:12:59.171Z,40.00
2019-03-27T08:15:26.405Z,41.25
2019-03-27T08:17:53.636Z,42.40
2019-03-27T08:20:20.856Z,45.43
2019-03-27T08:22:48.095Z,45.08
2019-03-27T08:25:15.388Z,44.67
2019-03-27T08:27:42.645Z,44.27
2019-03-27T08:30:11.477Z,41.15
2019-03-27T08:32:38.700Z,41.35
2019-03-27T08:35:06.599Z,36.55
2019-03-27T08:37:33.850Z,41.98
2019-03-27T08:40:01.071Z,33.80
2019-03-27T08:42:28.307Z,38.80
2019-03-27T08:44:55.531Z,35.07
2019-03-27T08:47:22.776Z,43.23
2019-03-27T08:49:50.002Z,33.83
2019-03-27T08:52:17.241Z,36.30
2019-03-27T08:54:44.475Z,35.15
2019-03-27T08:57:11.715Z,43.00
2019-03-27T08:59:38.941Z,29.27
2019-03-27T09:02:06.177Z,35.97
2019-03-27T09:04:33.403Z,31.67
2019-03-27T09:07:00.720Z,37.57
2019-03-27T09:09:27.949Z,31.37
2019-03-27T09:11:55.175Z,29.70
2019-03-27T09:14:22.404Z,32.83
2019-03-27T09:16:49.628Z,44.20
2019-03-27T09:19:16.847Z,34.13
2019-03-27T09:21:44.326Z,32.57
2019-03-27T09:24:11.551Z,32.13
2019-03-27T09:26:38.775Z,21.47
2019-03-27T09:29:08.418Z,20.23
2019-03-27T09:31:44.598Z,26.30
2019-03-27T09:34:03.903Z,23.20
2019-03-27T09:36:31.139Z,23.10
2019-03-27T09:38:58.348Z,24.43
2019-03-27T09:41:25.568Z,26.73
2019-03-27T09:43:52.801Z,21.17
2019-03-27T09:46:20.034Z,19.00
2019-03-27T09:48:47.251Z,26.70
2019-03-27T09:51:14.487Z,23.40
2019-03-27T09:53:41.747Z,26.63
2019-03-27T09:56:18.966Z,37.73
2019-03-27T09:58:38.023Z,23.70
2019-03-27T10:01:05.468Z,21.10
2019-03-27T10:03:35.407Z,26.83
2019-03-27T10:06:02.638Z,33.90
2019-03-27T10:08:31.407Z,25.77
2019-03-27T10:10:58.694Z,21.27
2019-03-27T10:13:25.919Z,23.00
2019-03-27T10:15:53.144Z,24.90
2019-03-27T10:18:20.374Z,22.87
2019-03-27T10:20:47.622Z,35.73
2019-03-27T10:23:14.909Z,26.27
2019-03-27T10:25:42.233Z,29.07
2019-03-27T10:28:09.467Z,26.17
2019-03-27T10:30:36.707Z,23.53
2019-03-27T10:33:03.945Z,27.90
2019-03-27T10:35:31.163Z,17.77
2019-03-27T10:37:58.387Z,20.10
2019-03-27T10:40:25.714Z,30.70
2019-03-27T10:42:53.019Z,18.53
2019-03-27T10:45:20.239Z,18.07
2019-03-27T10:47:47.465Z,27.90
2019-03-27T10:50:17.950Z,21.67
2019-03-27T10:52:43.714Z,18.40
2019-03-27T10:55:11.079Z,19.00
2019-03-27T10:57:38.316Z,23.20
2019-03-27T11:00:07.079Z,23.00
2019-03-27T11:02:34.327Z,18.50
2019-03-27T11:05:01.549Z,17.90
2019-03-27T11:07:28.791Z,21.33
2019-03-27T11:09:56.031Z,19.90
2019-03-27T11:12:23.259Z,15.60
2019-03-27T11:14:50.487Z,20.00
2019-03-27T11:17:17.699Z,17.50
2019-03-27T11:19:44.926Z,18.57
2019-03-27T11:22:12.148Z,25.70
2019-03-27T11:24:39.379Z,20.43
2019-03-27T11:27:06.600Z,22.60
2019-03-27T11:29:33.825Z,16.23
2019-03-27T11:32:01.040Z,17.17
2019-03-27T11:34:28.263Z,18.73
2019-03-27T11:36:55.479Z,14.53
2019-03-27T11:39:24.776Z,11.77
2019-03-27T11:41:51.648Z,15.80
2019-03-27T11:44:18.884Z,19.23
2019-03-27T11:46:46.103Z,14.37
2019-03-27T11:49:13.329Z,13.30
2019-03-27T11:51:40.543Z,15.40
2019-03-27T11:54:07.774Z,15.90
2019-03-27T11:56:35.005Z,14.50
2019-03-27T11:59:02.241Z,21.10
2019-03-27T12:01:40.542Z,15.50
2019-03-27T12:03:58.399Z,13.00
2019-03-27T12:06:25.628Z,20.13
2019-03-27T12:08:52.855Z,14.97
2019-03-27T12:11:20.075Z,17.80
2019-03-27T12:13:47.291Z,18.47
2019-03-27T12:16:14.516Z,19.50
2019-03-27T12:18:41.741Z,16.20
2019-03-27T12:21:08.964Z,25.27
2019-03-27T12:23:36.183Z,15.93
2019-03-27T12:26:03.412Z,17.33
2019-03-27T12:28:30.675Z,19.57
2019-03-27T12:30:57.990Z,15.57
2019-03-27T12:33:25.265Z,30.03
2019-03-27T12:35:52.509Z,22.60
2019-03-27T12:38:19.733Z,23.23
2019-03-27T12:40:46.991Z,20.03
2019-03-27T12:43:14.188Z,121.27
2019-03-27T12:45:41.424Z,16.87
2019-03-27T12:48:08.639Z,18.83
2019-03-27T12:50:35.924Z,21.43
2019-03-27T12:53:03.135Z,22.23
2019-03-27T12:55:30.362Z,20.57
2019-03-27T12:57:57.580Z,19.50
2019-03-27T13:00:24.807Z,13.30
2019-03-27T13:02:52.023Z,15.93
2019-03-27T13:05:19.248Z,22.63
2019-03-27T13:07:50.283Z,12.07
2019-03-27T13:10:15.511Z,14.90
2019-03-27T13:12:42.732Z,13.57
2019-03-27T13:15:09.959Z,14.13
2019-03-27T13:17:37.199Z,15.13
2019-03-27T13:20:05.970Z,18.00
2019-03-27T13:22:33.187Z,11.80
2019-03-27T13:25:00.419Z,16.90
2019-03-27T13:27:27.714Z,13.43
2019-03-27T13:29:54.959Z,15.00
2019-03-27T13:32:22.634Z,19.30
2019-03-27T13:34:49.869Z,12.83
2019-03-27T13:37:17.071Z,9.23
2019-03-27T13:39:44.571Z,11.50
2019-03-27T13:42:11.796Z,8.80
2019-03-27T13:44:39.016Z,10.53
2019-03-27T13:47:06.310Z,11.53
2019-03-27T13:49:33.747Z,19.50
2019-03-27T13:52:00.973Z,10.20
2019-03-27T13:54:28.188Z,9.20
2019-03-27T13:56:55.417Z,11.63
2019-03-27T13:59:22.627Z,13.43
2019-03-27T14:01:49.859Z,16.60
2019-03-27T14:04:17.075Z,10.57
2019-03-27T14:06:44.948Z,14.43
2019-03-27T14:09:12.391Z,12.30
2019-03-27T14:11:39.630Z,13.30
2019-03-27T14:14:11.466Z,9.17
2019-03-27T14:16:35.861Z,10.77
2019-03-27T14:19:03.079Z,14.40
2019-03-27T14:21:30.307Z,13.60
2019-03-27T14:23:57.527Z,8.03
2019-03-27T14:26:24.751Z,14.07
2019-03-27T14:28:51.978Z,13.47
2019-03-27T14:31:19.214Z,10.57
2019-03-27T14:33:46.439Z,15.23
2019-03-27T14:36:13.694Z,10.20
2019-03-27T14:38:40.915Z,10.10
2019-03-27T14:41:08.219Z,7.13
2019-03-27T14:43:35.430Z,9.13
2019-03-27T14:46:02.664Z,11.60
2019-03-27T14:48:29.888Z,17.20
2019-03-27T14:50:57.099Z,8.93
2019-03-27T14:53:24.322Z,6.30
2019-03-27T14:55:51.534Z,10.80
2019-03-27T14:58:18.759Z,12.60
2019-03-27T15:00:45.987Z,7.63
2019-03-27T15:03:13.221Z,10.30
2019-03-27T15:05:40.431Z,8.87
2019-03-27T15:08:07.659Z,9.47
2019-03-27T15:10:34.939Z,7.97
2019-03-27T15:13:02.172Z,11.30
2019-03-27T15:15:29.415Z,7.37
2019-03-27T15:17:56.643Z,6.30
2019-03-27T15:20:23.863Z,11.27
2019-03-27T15:22:51.083Z,7.40
2019-03-27T15:25:18.299Z,7.03
2019-03-27T15:27:45.523Z,9.50
2019-03-27T15:30:13.292Z,7.53
2019-03-27T15:32:40.679Z,7.17
2019-03-27T15:35:07.973Z,9.30
2019-03-27T15:37:35.191Z,10.90
2019-03-27T15:40:02.485Z,9.80
2019-03-27T15:42:29.707Z,12.53
2019-03-27T15:44:56.927Z,11.50
2019-03-27T15:47:24.155Z,13.90
2019-03-27T15:49:51.381Z,8.90
2019-03-27T15:52:18.611Z,5.93
2019-03-27T15:54:45.832Z,6.70
2019-03-27T15:57:13.139Z,8.43
2019-03-27T15:59:40.367Z,8.27
2019-03-27T16:02:07.669Z,9.53
2019-03-27T16:04:34.883Z,6.13
2019-03-27T16:07:02.108Z,8.97
2019-03-27T16:09:29.327Z,6.00
2019-03-27T16:11:56.567Z,10.30
2019-03-27T16:14:23.797Z,18.80
2019-03-27T16:17:06.888Z,6.80
2019-03-27T16:19:19.975Z,9.00
2019-03-27T16:21:47.264Z,6.70
2019-03-27T16:24:14.493Z,23.70
2019-03-27T16:26:41.711Z,9.00
2019-03-27T16:29:08.948Z,6.07
2019-03-27T16:31:36.151Z,8.23
2019-03-27T16:34:03.383Z,4.37
2019-03-27T16:36:30.604Z,7.63
2019-03-27T16:38:57.899Z,17.30
2019-03-27T16:41:25.211Z,5.00
2019-03-27T16:43:52.688Z,6.00
2019-03-27T16:46:19.900Z,8.73
2019-03-27T16:48:47.895Z,6.27
2019-03-27T16:51:15.115Z,9.73
2019-03-27T16:53:42.336Z,4.33
2019-03-27T16:56:09.549Z,7.10
2019-03-27T16:58:36.766Z,5.03
2019-03-27T17:01:04.486Z,4.57
2019-03-27T17:03:31.707Z,3.70
2019-03-27T17:05:58.923Z,5.70
2019-03-27T17:08:26.282Z,6.43
2019-03-27T17:10:53.671Z,11.00
2019-03-27T17:13:21.040Z,6.00
2019-03-27T17:15:48.514Z,8.57
2019-03-27T17:18:15.922Z,5.93
2019-03-27T17:20:44.295Z,5.90
2019-03-27T17:23:18.144Z,4.33
2019-03-27T17:25:40.748Z,3.60
2019-03-27T17:28:08.106Z,7.53
2019-03-27T17:30:35.454Z,4.50
2019-03-27T17:33:02.734Z,6.27
2019-03-27T17:35:29.952Z,11.00
2019-03-27T17:37:57.175Z,4.10
2019-03-27T17:40:24.398Z,5.23
2019-03-27T17:42:51.667Z,2.30
2019-03-27T17:45:18.927Z,5.67
2019-03-27T17:47:46.168Z,6.60
2019-03-27T17:50:13.549Z,6.40
2019-03-27T17:52:40.780Z,5.53
2019-03-27T17:55:08.067Z,4.70
2019-03-27T17:57:35.302Z,8.40
2019-03-27T18:00:03.983Z,3.13
2019-03-27T18:02:31.199Z,9.07
2019-03-27T18:04:58.423Z,9.10
2019-03-27T18:07:25.643Z,10.93
2019-03-27T18:09:52.867Z,3.90
2019-03-27T18:12:20.132Z,7.20
2019-03-27T18:14:47.339Z,11.10
2019-03-27T18:17:14.556Z,7.40
2019-03-27T18:19:41.786Z,8.53
2019-03-27T18:22:09.011Z,7.80
2019-03-27T18:24:36.247Z,6.13
2019-03-27T18:27:04.656Z,7.60
2019-03-27T18:29:31.879Z,5.33
2019-03-27T18:31:59.097Z,4.20
2019-03-27T18:34:26.324Z,7.73
2019-03-27T18:36:53.536Z,6.97
2019-03-27T18:39:20.771Z,13.23
2019-03-27T18:41:47.984Z,7.90
2019-03-27T18:44:15.271Z,5.10
2019-03-27T18:46:42.485Z,9.10
2019-03-27T18:49:10.591Z,6.17
2019-03-27T18:51:38.007Z,5.53
2019-03-27T18:54:05.291Z,3.43
2019-03-27T18:56:32.505Z,5.47
2019-03-27T18:58:59.736Z,6.80
2019-03-27T19:01:26.949Z,7.07
2019-03-27T19:03:54.208Z,6.93
2019-03-27T19:06:21.435Z,4.93
2019-03-27T19:08:48.658Z,6.50
2019-03-27T19:11:15.862Z,8.80
2019-03-27T19:13:43.095Z,7.90
2019-03-27T19:16:11.715Z,5.60
2019-03-27T19:18:40.479Z,12.23
2019-03-27T19:21:07.687Z,5.53
2019-03-27T19:23:34.931Z,5.90
2019-03-27T19:26:02.160Z,13.77
2019-03-27T19:28:29.384Z,4.27
2019-03-27T19:30:56.679Z,15.13
2019-03-27T19:33:23.903Z,5.87
2019-03-27T19:35:51.160Z,4.63
2019-03-27T19:38:18.396Z,12.40
2019-03-27T19:40:45.609Z,6.07
2019-03-27T19:43:12.833Z,4.22
2019-03-27T19:45:40.126Z,9.77
2019-03-27T19:48:07.336Z,8.13
2019-03-27T19:50:34.563Z,6.45
2019-03-27T19:53:01.820Z,7.90
2019-03-27T19:55:29.055Z,5.17
2019-03-27T19:57:56.283Z,6.53
2019-03-27T20:00:23.576Z,7.77
2019-03-27T20:02:50.788Z,8.87
2019-03-27T20:05:18.020Z,7.20
2019-03-27T20:07:45.231Z,5.47
2019-03-27T20:10:12.740Z,5.00
2019-03-27T20:12:39.967Z,12.07
2019-03-27T20:15:12.234Z,19.32
2019-03-27T20:17:36.228Z,13.50
2019-03-27T20:20:07.303Z,21.87
2019-03-27T20:22:33.834Z,24.30
2019-03-27T20:25:01.074Z,13.72
2019-03-27T20:27:28.303Z,16.00
2019-03-27T20:29:55.547Z,12.78
2019-03-27T20:32:22.785Z,17.27
2019-03-27T20:34:50.006Z,12.18
2019-03-27T20:37:17.480Z,14.45
2019-03-27T20:39:44.740Z,11.88
2019-03-27T20:42:11.975Z,10.93
2019-03-27T20:44:39.216Z,7.28
2019-03-27T20:47:06.435Z,9.53
2019-03-27T20:49:33.671Z,19.95
2019-03-27T20:52:00.913Z,47.40
2019-03-27T20:54:28.151Z,79.65
2019-03-27T20:56:55.375Z,58.83
2019-03-27T20:59:22.626Z,52.48
2019-03-27T21:01:49.842Z,56.35
2019-03-27T21:04:17.095Z,44.03
2019-03-27T21:06:44.333Z,41.18
2019-03-27T21:09:11.565Z,37.60
2019-03-27T21:11:38.807Z,35.88
2019-03-27T21:14:06.027Z,24.92
2019-03-27T21:16:34.091Z,22.25
2019-03-27T21:19:01.324Z,17.50
2019-03-27T21:21:28.567Z,14.90
2019-03-27T21:23:55.810Z,18.60
2019-03-27T21:26:23.234Z,15.83
2019-03-27T21:28:50.460Z,12.88
2019-03-27T21:31:18.183Z,16.90
2019-03-27T21:33:45.420Z,17.55
2019-03-27T21:36:13.217Z,18.27
2019-03-27T21:38:40.490Z,16.90
2019-03-27T21:41:07.719Z,10.40
2019-03-27T21:43:35.019Z,21.65
2019-03-27T21:46:02.245Z,20.70
2019-03-27T21:48:29.460Z,27.40
2019-03-27T21:50:56.690Z,25.77
2019-03-27T21:53:23.913Z,25.50
2019-03-27T21:55:51.134Z,18.60
2019-03-27T21:58:18.371Z,14.58
2019-03-27T22:00:45.669Z,13.32
2019-03-27T22:03:12.945Z,14.75
2019-03-27T22:05:40.168Z,16.57
2019-03-27T22:08:07.386Z,11.55
2019-03-27T22:10:34.718Z,16.50
2019-03-27T22:13:01.946Z,15.25
2019-03-27T22:15:29.384Z,16.25
2019-03-27T22:17:56.618Z,18.32
2019-03-27T22:20:23.827Z,15.35
2019-03-27T22:22:51.064Z,11.65
2019-03-27T22:25:18.288Z,22.85
2019-03-27T22:27:45.515Z,9.98
2019-03-27T22:30:12.799Z,8.98
2019-03-27T22:32:40.023Z,16.67
2019-03-27T22:35:08.015Z,13.95
2019-03-27T22:37:35.244Z,17.17
2019-03-27T22:40:03.643Z,7.65
2019-03-27T22:42:30.871Z,14.78
2019-03-27T22:44:58.088Z,9.30
2019-03-27T22:47:25.319Z,8.15
2019-03-27T22:49:52.535Z,11.38
2019-03-27T22:52:19.771Z,10.65
2019-03-27T22:54:46.984Z,8.88
2019-03-27T22:57:14.211Z,10.23
2019-03-27T22:59:41.436Z,14.38
2019-03-27T23:02:08.739Z,8.75
2019-03-27T23:04:35.959Z,8.15
2019-03-27T23:07:03.466Z,5.50
2019-03-27T23:09:30.679Z,11.75
2019-03-27T23:11:57.908Z,7.33
2019-03-27T23:14:25.123Z,8.63
2019-03-27T23:16:52.354Z,9.60
2019-03-27T23:19:19.574Z,9.85
2019-03-27T23:21:46.867Z,6.90
2019-03-27T23:24:14.083Z,9.80
2019-03-27T23:26:41.301Z,8.05
2019-03-27T23:29:08.525Z,7.35
2019-03-27T23:31:35.735Z,6.15
2019-03-27T23:34:02.950Z,7.50
2019-03-27T23:36:30.192Z,13.28
2019-03-27T23:38:57.419Z,11.00
2019-03-27T23:41:25.248Z,6.90
2019-03-27T23:43:52.603Z,8.18
2019-03-27T23:46:19.900Z,9.45
2019-03-27T23:48:47.244Z,10.80
2019-03-27T23:51:14.463Z,8.00
2019-03-27T23:53:41.687Z,6.55
2019-03-27T23:56:16.344Z,12.78
2019-03-27T23:58:37.855Z,4.87
